createdAt,value
2023-02-15T00:00:11.680Z,100758.77
2023-02-15T00:03:00.060Z,100761.56
2023-02-15T00:05:30.427Z,100759.48
2023-02-15T00:07:58.193Z,100760.55
2023-02-15T00:10:25.939Z,100763.02
2023-02-15T00:12:53.696Z,100765.65
2023-02-15T00:15:22.003Z,100763.89
2023-02-15T00:17:50.264Z,100763.00
2023-02-15T00:20:19.508Z,100763.53
2023-02-15T00:22:47.283Z,100766.34
2023-02-15T00:25:15.112Z,100766.67
2023-02-15T00:27:43.578Z,100764.23
2023-02-15T00:30:12.459Z,100759.54
2023-02-15T00:32:40.224Z,100756.58
2023-02-15T00:35:08.469Z,100755.00
2023-02-15T00:37:36.615Z,100751.70
2023-02-15T00:40:05.188Z,100751.54
2023-02-15T00:42:33.588Z,100750.30
2023-02-15T00:45:01.851Z,100749.61
2023-02-15T00:47:29.636Z,100746.99
2023-02-15T00:49:57.409Z,100749.98
2023-02-15T00:52:25.165Z,100750.87
2023-02-15T00:54:52.912Z,100747.57
2023-02-15T00:57:21.177Z,100746.33
2023-02-15T00:59:49.529Z,100744.02
2023-02-15T01:02:17.367Z,100744.02
2023-02-15T01:04:46.376Z,100745.44
2023-02-15T01:07:14.098Z,100740.90
2023-02-15T01:09:41.861Z,100739.48
2023-02-15T01:12:10.363Z,100734.94
2023-02-15T01:14:38.564Z,100731.60
2023-02-15T01:17:06.356Z,100728.45
2023-02-15T01:19:34.130Z,100729.00
2023-02-15T01:22:01.861Z,100729.35
2023-02-15T01:24:29.605Z,100730.23
2023-02-15T01:26:57.900Z,100729.17
2023-02-15T01:29:26.293Z,100731.99
2023-02-15T01:31:54.167Z,100728.85
2023-02-15T01:34:22.163Z,100727.66
2023-02-15T01:36:49.937Z,100728.36
2023-02-15T01:39:17.745Z,100721.88
2023-02-15T01:41:46.244Z,100723.81
2023-02-15T01:44:48.789Z,100720.50
2023-02-15T01:47:47.887Z,100720.82
2023-02-15T01:50:27.845Z,100715.58
2023-02-15T01:53:20.415Z,100714.36
2023-02-15T01:56:05.825Z,100714.89
2023-02-15T01:58:36.398Z,100713.68
2023-02-15T02:01:08.662Z,100709.48
2023-02-15T02:04:03.814Z,100704.24
2023-02-15T02:06:34.373Z,100701.46
2023-02-15T02:09:03.414Z,100701.48
2023-02-15T02:11:31.793Z,100695.01
2023-02-15T02:13:59.946Z,100697.27
2023-02-15T02:16:56.985Z,100697.59
2023-02-15T02:19:46.484Z,100689.19
2023-02-15T02:22:27.133Z,100693.40
2023-02-15T02:25:10.027Z,100690.23
2023-02-15T02:27:44.786Z,100692.67
2023-02-15T02:30:31.145Z,100688.09
2023-02-15T02:33:14.268Z,100689.10
2023-02-15T02:36:18.001Z,100691.20
2023-02-15T02:38:57.699Z,100690.52
2023-02-15T02:41:28.665Z,100691.92
2023-02-15T02:44:11.640Z,100693.67
2023-02-15T02:46:51.065Z,100692.11
2023-02-15T02:49:39.363Z,100691.23
2023-02-15T02:52:36.767Z,100700.70
2023-02-15T02:55:13.775Z,100701.92
2023-02-15T02:57:51.580Z,100697.35
2023-02-15T03:00:21.992Z,100701.38
2023-02-15T03:02:55.214Z,100699.11
2023-02-15T03:05:27.662Z,100696.14
2023-02-15T03:07:57.974Z,100698.42
2023-02-15T03:10:26.420Z,100698.27
2023-02-15T03:12:54.890Z,100699.67
2023-02-15T03:15:51.106Z,100701.45
2023-02-15T03:18:23.618Z,100703.04
2023-02-15T03:20:53.342Z,100701.98
2023-02-15T03:23:25.949Z,100700.06
2023-02-15T03:26:00.813Z,100704.95
2023-02-15T03:28:52.780Z,100700.73
2023-02-15T03:31:24.120Z,100698.45
2023-02-15T03:33:58.958Z,100700.20
2023-02-15T03:36:51.582Z,100694.62
2023-02-15T03:39:35.702Z,100698.68
2023-02-15T03:42:11.060Z,100699.23
2023-02-15T03:44:51.630Z,100699.25
2023-02-15T03:47:24.120Z,100698.39
2023-02-15T03:49:59.116Z,100697.15
2023-02-15T03:52:30.507Z,100695.38
2023-02-15T03:54:58.760Z,100691.71
2023-02-15T03:57:48.034Z,100688.24
2023-02-15T04:00:36.914Z,100687.39
2023-02-15T04:03:16.950Z,100683.36
2023-02-15T04:05:45.886Z,100683.23
2023-02-15T04:08:14.229Z,100682.21
2023-02-15T04:10:54.486Z,100682.52
2023-02-15T04:13:33.432Z,100680.25
2023-02-15T04:16:08.159Z,100680.41
2023-02-15T04:18:58.680Z,100681.48
2023-02-15T04:21:47.309Z,100679.55
2023-02-15T04:24:35.096Z,100680.26
2023-02-15T04:27:04.318Z,100674.66
2023-02-15T04:29:32.896Z,100674.13
2023-02-15T04:32:03.583Z,100673.77
2023-02-15T04:34:32.045Z,100671.02
2023-02-15T04:36:59.803Z,100671.20
2023-02-15T04:39:28.307Z,100668.75
2023-02-15T04:41:56.121Z,100663.48
2023-02-15T04:44:23.886Z,100662.98
2023-02-15T04:46:51.702Z,100665.25
2023-02-15T04:49:19.995Z,100665.80
2023-02-15T04:51:48.374Z,100667.36
2023-02-15T04:54:16.157Z,100668.63
2023-02-15T04:56:44.280Z,100669.19
2023-02-15T04:59:12.960Z,100673.23
2023-02-15T05:01:40.780Z,100669.90
2023-02-15T05:04:10.314Z,100671.13
2023-02-15T05:06:38.089Z,100672.53
2023-02-15T05:09:05.889Z,100674.83
2023-02-15T05:11:33.782Z,100675.88
2023-02-15T05:14:01.706Z,100674.96
2023-02-15T05:16:29.497Z,100674.23
2023-02-15T05:18:57.284Z,100676.35
2023-02-15T05:21:25.576Z,100678.46
2023-02-15T05:23:53.461Z,100681.09
2023-02-15T05:26:42.136Z,100684.08
2023-02-15T05:29:11.545Z,100684.61
2023-02-15T05:31:39.603Z,100684.42
2023-02-15T05:34:07.646Z,100684.60
2023-02-15T05:36:35.419Z,100683.71
2023-02-15T05:39:05.156Z,100686.55
2023-02-15T05:41:32.867Z,100688.36
2023-02-15T05:44:01.118Z,100690.65
2023-02-15T05:46:28.977Z,100692.77
2023-02-15T05:48:56.759Z,100692.06
2023-02-15T05:51:24.514Z,100691.52
2023-02-15T05:53:52.539Z,100690.48
2023-02-15T05:56:20.328Z,100693.11
2023-02-15T05:58:48.965Z,100691.71
2023-02-15T06:01:19.342Z,100692.91
2023-02-15T06:03:47.248Z,100693.04
2023-02-15T06:06:15.224Z,100695.13
2023-02-15T06:08:43.261Z,100697.73
2023-02-15T06:11:11.185Z,100701.41
2023-02-15T06:13:39.489Z,100703.67
2023-02-15T06:16:08.008Z,100708.04
2023-02-15T06:18:36.178Z,100706.23
2023-02-15T06:21:04.036Z,100704.61
2023-02-15T06:23:31.749Z,100706.52
2023-02-15T06:26:00.222Z,100711.21
2023-02-15T06:28:28.234Z,100713.64
2023-02-15T06:30:56.129Z,100715.36
2023-02-15T06:33:24.605Z,100713.55
2023-02-15T06:35:52.632Z,100716.83
2023-02-15T06:38:21.270Z,100718.18
2023-02-15T06:40:49.494Z,100719.89
2023-02-15T06:43:17.465Z,100720.21
2023-02-15T06:45:45.246Z,100719.16
2023-02-15T06:48:12.976Z,100716.03
2023-02-15T06:50:40.792Z,100718.11
2023-02-15T06:53:08.557Z,100718.38
2023-02-15T06:55:36.874Z,100716.34
2023-02-15T06:58:04.657Z,100717.67
2023-02-15T07:00:32.523Z,100717.78
2023-02-15T07:03:00.488Z,100712.81
2023-02-15T07:05:32.147Z,100713.10
2023-02-15T07:08:01.801Z,100710.60
2023-02-15T07:10:29.737Z,100708.07
2023-02-15T07:12:57.622Z,100712.55
2023-02-15T07:15:25.488Z,100710.36
2023-02-15T07:17:53.313Z,100710.80
2023-02-15T07:20:24.175Z,100713.36
2023-02-15T07:22:52.794Z,100712.77
2023-02-15T07:25:21.050Z,100710.57
2023-02-15T07:27:48.896Z,100707.20
2023-02-15T07:30:18.208Z,100704.66
2023-02-15T07:33:05.699Z,100700.91
2023-02-15T07:35:35.267Z,100707.65
2023-02-15T07:38:03.515Z,100710.02
2023-02-15T07:40:31.470Z,100708.89
2023-02-15T07:43:00.359Z,100708.67
2023-02-15T07:45:28.385Z,100707.79
2023-02-15T07:47:56.220Z,100708.33
2023-02-15T07:50:24.625Z,100711.26
2023-02-15T07:52:53.034Z,100711.52
2023-02-15T07:55:20.915Z,100711.48
2023-02-15T07:57:50.921Z,100704.64
2023-02-15T08:00:23.889Z,100698.57
2023-02-15T08:03:14.079Z,100699.58
2023-02-15T08:05:45.169Z,100695.17
2023-02-15T08:08:32.314Z,100691.33
2023-02-15T08:11:26.361Z,100687.08
2023-02-15T08:13:55.251Z,100684.11
2023-02-15T08:16:42.695Z,100681.34
2023-02-15T08:19:29.032Z,100680.95
2023-02-15T08:21:59.770Z,100683.48
2023-02-15T08:24:32.933Z,100681.35
2023-02-15T08:27:06.075Z,100684.34
2023-02-15T08:29:36.646Z,100685.98
2023-02-15T08:32:07.727Z,100687.41
2023-02-15T08:34:38.859Z,100681.91
2023-02-15T08:37:07.288Z,100677.90
2023-02-15T08:39:35.208Z,100679.45
2023-02-15T08:42:03.321Z,100677.07
2023-02-15T08:44:32.355Z,100673.45
2023-02-15T08:47:07.518Z,100681.44
2023-02-15T08:49:35.411Z,100678.68
2023-02-15T08:52:03.733Z,100682.08
2023-02-15T08:54:32.326Z,100679.34
2023-02-15T08:57:01.613Z,100679.22
2023-02-15T08:59:29.910Z,100677.36
2023-02-15T09:01:57.741Z,100682.39
2023-02-15T09:04:25.590Z,100677.98
2023-02-15T09:06:54.205Z,100674.80
2023-02-15T09:09:22.778Z,100674.90
2023-02-15T09:11:57.824Z,100675.07
2023-02-15T09:14:28.513Z,100674.38
2023-02-15T09:16:56.980Z,100672.15
2023-02-15T09:19:26.186Z,100668.07
2023-02-15T09:21:54.125Z,100667.89
2023-02-15T09:24:22.353Z,100666.43
2023-02-15T09:26:50.721Z,100660.88
2023-02-15T09:29:20.029Z,100660.09
2023-02-15T09:31:51.030Z,100658.42
2023-02-15T09:34:21.817Z,100660.08
2023-02-15T09:36:50.995Z,100659.48
2023-02-15T09:39:24.731Z,100657.34
2023-02-15T09:42:20.822Z,100652.24
2023-02-15T09:45:08.030Z,100648.80
2023-02-15T09:48:13.690Z,100650.64
2023-02-15T09:51:01.235Z,100650.25
2023-02-15T09:53:51.173Z,100644.02
2023-02-15T09:56:38.659Z,100646.17
2023-02-15T09:59:27.701Z,100639.89
2023-02-15T10:02:15.048Z,100638.55
2023-02-15T10:05:09.360Z,100632.70
2023-02-15T10:08:09.626Z,100625.20
2023-02-15T10:11:29.284Z,100630.18
2023-02-15T10:14:16.130Z,100625.00
2023-02-15T10:16:53.288Z,100616.56
2023-02-15T10:19:28.390Z,100610.77
2023-02-15T10:21:59.097Z,100613.38
2023-02-15T10:24:50.575Z,100611.23
2023-02-15T10:27:23.169Z,100600.70
2023-02-15T10:30:10.733Z,100597.30
2023-02-15T10:33:00.247Z,100596.21
2023-02-15T10:35:54.060Z,100592.15
2023-02-15T10:38:36.250Z,100590.23
2023-02-15T10:41:29.288Z,100585.50
2023-02-15T10:44:19.101Z,100577.08
2023-02-15T10:47:26.126Z,100574.00
2023-02-15T10:50:22.708Z,100575.66
2023-02-15T10:53:28.521Z,100575.29
2023-02-15T10:56:13.342Z,100572.27
2023-02-15T10:58:41.884Z,100567.72
2023-02-15T11:01:32.195Z,100565.77
2023-02-15T11:04:09.427Z,100562.38
2023-02-15T11:06:43.238Z,100560.52
2023-02-15T11:09:14.300Z,100560.27
2023-02-15T11:11:47.491Z,100553.08
2023-02-15T11:14:55.140Z,100555.71
2023-02-15T11:17:29.012Z,100550.91
2023-02-15T11:20:20.067Z,100547.17
2023-02-15T11:22:52.012Z,100544.00
2023-02-15T11:25:29.926Z,100545.36
2023-02-15T11:27:57.783Z,100538.11
2023-02-15T11:30:39.426Z,100533.50
2023-02-15T11:33:19.688Z,100527.86
2023-02-15T11:35:53.519Z,100525.36
2023-02-15T11:38:29.873Z,100521.44
2023-02-15T11:41:07.478Z,100523.98
2023-02-15T11:43:52.607Z,100523.22
2023-02-15T11:46:22.065Z,100524.95
2023-02-15T11:48:50.598Z,100519.00
2023-02-15T11:51:24.057Z,100519.50
2023-02-15T11:53:53.126Z,100515.75
2023-02-15T11:56:25.960Z,100511.70
2023-02-15T11:59:16.503Z,100511.65
2023-02-15T12:01:46.373Z,100508.89
2023-02-15T12:04:37.190Z,100504.19
2023-02-15T12:07:19.128Z,100494.81
2023-02-15T12:09:52.345Z,100495.68
2023-02-15T12:12:24.795Z,100492.30
2023-02-15T12:14:57.899Z,100489.77
2023-02-15T12:17:39.504Z,100480.88
2023-02-15T12:20:17.242Z,100481.02
2023-02-15T12:22:55.632Z,100476.23
2023-02-15T12:25:40.739Z,100468.79
2023-02-15T12:28:41.063Z,100460.71
2023-02-15T12:31:40.216Z,100458.45
2023-02-15T12:34:34.849Z,100455.64
2023-02-15T12:37:11.017Z,100455.04
2023-02-15T12:39:51.267Z,100454.98
2023-02-15T12:42:20.726Z,100446.82
2023-02-15T12:45:26.411Z,100442.90
2023-02-15T12:48:19.614Z,100442.30
2023-02-15T12:50:57.504Z,100439.79
2023-02-15T12:53:37.166Z,100440.26
2023-02-15T12:56:08.557Z,100435.30
2023-02-15T12:58:47.025Z,100433.16
2023-02-15T13:01:25.645Z,100431.27
2023-02-15T13:04:04.891Z,100429.00
2023-02-15T13:06:37.918Z,100426.36
2023-02-15T13:09:32.172Z,100421.71
2023-02-15T13:12:17.769Z,100417.63
2023-02-15T13:14:47.996Z,100415.19
2023-02-15T13:17:18.478Z,100415.70
2023-02-15T13:19:51.617Z,100404.62
2023-02-15T13:22:45.183Z,100406.63
2023-02-15T13:25:21.198Z,100408.74
2023-02-15T13:28:06.212Z,100405.05
2023-02-15T13:30:39.191Z,100403.43
2023-02-15T13:33:28.605Z,100402.30
2023-02-15T13:36:15.659Z,100395.88
2023-02-15T13:39:11.939Z,100396.00
2023-02-15T13:42:03.213Z,100390.59
2023-02-15T13:44:49.172Z,100389.89
2023-02-15T13:47:52.341Z,100388.14
2023-02-15T13:50:49.395Z,100388.29
2023-02-15T13:53:41.213Z,100387.23
2023-02-15T13:56:24.664Z,100381.46
2023-02-15T13:59:25.645Z,100381.67
2023-02-15T14:01:59.878Z,100381.90
2023-02-15T14:04:42.596Z,100387.48
2023-02-15T14:07:32.121Z,100388.55
2023-02-15T14:10:34.558Z,100386.27
2023-02-15T14:13:41.005Z,100387.85
2023-02-15T14:16:25.179Z,100386.85
2023-02-15T14:19:06.421Z,100381.44
2023-02-15T14:22:12.751Z,100382.35
2023-02-15T14:25:00.264Z,100383.60
2023-02-15T14:27:40.780Z,100380.42
2023-02-15T14:30:19.506Z,100377.99
2023-02-15T14:32:53.888Z,100375.70
2023-02-15T14:35:27.270Z,100375.56
2023-02-15T14:38:17.060Z,100371.05
2023-02-15T14:41:11.526Z,100367.10
2023-02-15T14:43:57.976Z,100365.06
2023-02-15T14:46:48.390Z,100363.52
2023-02-15T14:49:19.429Z,100361.79
2023-02-15T14:51:51.177Z,100355.48
2023-02-15T14:54:19.704Z,100358.33
2023-02-15T14:57:08.638Z,100354.35
2023-02-15T14:59:58.428Z,100356.02
2023-02-15T15:02:26.648Z,100352.96
2023-02-15T15:04:54.915Z,100353.37
2023-02-15T15:07:26.573Z,100350.27
2023-02-15T15:10:05.006Z,100348.97
2023-02-15T15:12:36.779Z,100345.39
2023-02-15T15:15:06.197Z,100342.31
2023-02-15T15:17:34.528Z,100338.35
2023-02-15T15:20:14.735Z,100336.33
2023-02-15T15:22:44.138Z,100335.73
2023-02-15T15:25:33.637Z,100334.96
2023-02-15T15:28:01.455Z,100334.58
2023-02-15T15:30:32.982Z,100332.27
2023-02-15T15:33:26.716Z,100333.83
2023-02-15T15:36:15.744Z,100330.65
2023-02-15T15:39:02.306Z,100330.46
2023-02-15T15:41:39.563Z,100329.58
2023-02-15T15:44:43.785Z,100330.48
2023-02-15T15:47:25.833Z,100328.81
2023-02-15T15:49:58.068Z,100329.55
2023-02-15T15:52:27.461Z,100326.59
2023-02-15T15:55:06.287Z,100330.27
2023-02-15T15:57:42.437Z,100330.09
2023-02-15T16:00:43.382Z,100330.46
2023-02-15T16:03:23.951Z,100325.59
2023-02-15T16:05:56.692Z,100333.30
2023-02-15T16:08:40.931Z,100326.11
2023-02-15T16:11:15.557Z,100325.05
2023-02-15T16:13:45.394Z,100323.30
2023-02-15T16:16:20.589Z,100323.44
2023-02-15T16:18:49.070Z,100320.27
2023-02-15T16:21:24.368Z,100324.44
2023-02-15T16:23:52.678Z,100321.94
2023-02-15T16:26:55.800Z,100323.98
2023-02-15T16:29:31.964Z,100319.60
2023-02-15T16:32:28.090Z,100325.50
2023-02-15T16:34:57.574Z,100320.92
2023-02-15T16:37:37.458Z,100322.11
2023-02-15T16:40:06.060Z,100321.18
2023-02-15T16:42:36.220Z,100320.60
2023-02-15T16:45:14.674Z,100320.01
2023-02-15T16:47:48.033Z,100319.05
2023-02-15T16:50:24.567Z,100317.58
2023-02-15T16:52:53.394Z,100316.62
2023-02-15T16:55:45.946Z,100317.07
2023-02-15T16:58:18.409Z,100314.91
2023-02-15T17:00:47.041Z,100312.88
2023-02-15T17:03:14.804Z,100308.80
2023-02-15T17:05:54.635Z,100309.39
2023-02-15T17:08:27.449Z,100310.88
2023-02-15T17:11:17.168Z,100308.15
2023-02-15T17:14:05.128Z,100309.11
2023-02-15T17:16:52.673Z,100310.58
2023-02-15T17:19:25.852Z,100306.64
2023-02-15T17:22:00.722Z,100308.78
2023-02-15T17:24:32.097Z,100305.89
2023-02-15T17:27:04.782Z,100305.42
2023-02-15T17:29:46.020Z,100302.51
2023-02-15T17:32:32.846Z,100302.90
2023-02-15T17:35:19.121Z,100301.73
2023-02-15T17:37:51.427Z,100301.61
2023-02-15T17:40:24.929Z,100301.68
2023-02-15T17:42:53.604Z,100299.27
2023-02-15T17:45:25.499Z,100304.92
2023-02-15T17:47:54.527Z,100308.46
2023-02-15T17:50:24.629Z,100301.25
2023-02-15T17:52:56.626Z,100295.59
2023-02-15T17:55:41.402Z,100291.91
2023-02-15T17:58:13.139Z,100285.65
2023-02-15T18:01:05.786Z,100287.65
2023-02-15T18:04:02.430Z,100287.52
2023-02-15T18:06:48.752Z,100284.96
2023-02-15T18:09:39.050Z,100289.21
2023-02-15T18:12:15.724Z,100289.02
2023-02-15T18:14:43.505Z,100288.89
2023-02-15T18:17:14.101Z,100287.52
2023-02-15T18:19:44.529Z,100285.98
2023-02-15T18:22:19.455Z,100283.04
2023-02-15T18:24:49.169Z,100280.59
2023-02-15T18:27:17.143Z,100280.77
2023-02-15T18:29:45.148Z,100276.99
2023-02-15T18:32:27.536Z,100278.29
2023-02-15T18:34:57.780Z,100278.52
2023-02-15T18:37:31.640Z,100277.19
2023-02-15T18:40:01.277Z,100272.55
2023-02-15T18:42:36.322Z,100271.75
2023-02-15T18:45:16.402Z,100271.27
2023-02-15T18:47:46.278Z,100269.75
2023-02-15T18:50:15.967Z,100264.92
2023-02-15T18:52:46.770Z,100266.00
2023-02-15T18:55:22.756Z,100263.42
2023-02-15T18:57:53.513Z,100263.56
2023-02-15T19:00:28.652Z,100262.85
2023-02-15T19:02:57.703Z,100263.20
2023-02-15T19:05:28.436Z,100259.46
2023-02-15T19:07:59.263Z,100255.92
2023-02-15T19:10:29.788Z,100257.11
2023-02-15T19:12:59.023Z,100252.03
2023-02-15T19:15:34.002Z,100253.74
2023-02-15T19:18:02.405Z,100253.05
2023-02-15T19:20:40.325Z,100250.84
2023-02-15T19:23:15.595Z,100247.54
2023-02-15T19:25:43.577Z,100247.91
2023-02-15T19:28:32.445Z,100246.04
2023-02-15T19:31:00.979Z,100242.92
2023-02-15T19:33:28.774Z,100239.78
2023-02-15T19:35:57.705Z,100240.52
2023-02-15T19:38:31.050Z,100241.10
2023-02-15T19:41:07.832Z,100240.79
2023-02-15T19:43:36.612Z,100241.70
2023-02-15T19:46:04.983Z,100236.84
2023-02-15T19:48:32.990Z,100237.75
2023-02-15T19:51:00.914Z,100234.83
2023-02-15T19:53:30.003Z,100229.14
2023-02-15T19:55:58.398Z,100229.54
2023-02-15T19:58:26.620Z,100229.92
2023-02-15T20:00:54.382Z,100223.15
2023-02-15T20:03:22.290Z,100228.22
2023-02-15T20:05:51.203Z,100223.67
2023-02-15T20:08:22.030Z,100226.64
2023-02-15T20:10:49.904Z,100223.52
2023-02-15T20:13:20.155Z,100225.98
2023-02-15T20:15:51.053Z,100216.58
2023-02-15T20:18:21.083Z,100215.84
2023-02-15T20:20:53.079Z,100215.50
2023-02-15T20:23:27.004Z,100214.11
2023-02-15T20:26:02.887Z,100208.19
2023-02-15T20:28:31.873Z,100206.48
2023-02-15T20:30:59.851Z,100205.23
2023-02-15T20:33:27.682Z,100201.91
2023-02-15T20:35:55.886Z,100201.20
2023-02-15T20:38:29.781Z,100199.66
2023-02-15T20:41:18.548Z,100197.24
2023-02-15T20:43:46.370Z,100196.76
2023-02-15T20:46:14.697Z,100199.02
2023-02-15T20:48:43.370Z,100195.36
2023-02-15T20:51:21.861Z,100188.42
2023-02-15T20:53:49.712Z,100187.91
2023-02-15T20:56:21.048Z,100185.14
2023-02-15T20:58:49.728Z,100185.15
2023-02-15T21:01:21.230Z,100186.54
2023-02-15T21:03:49.242Z,100184.27
2023-02-15T21:06:17.804Z,100183.59
2023-02-15T21:08:46.120Z,100183.60
2023-02-15T21:11:20.685Z,100183.60
2023-02-15T21:13:50.953Z,100185.52
2023-02-15T21:16:19.265Z,100183.09
2023-02-15T21:18:47.139Z,100182.77
2023-02-15T21:21:23.517Z,100182.94
2023-02-15T21:23:53.265Z,100182.73
2023-02-15T21:26:23.171Z,100177.83
2023-02-15T21:28:51.687Z,100181.63
2023-02-15T21:31:22.755Z,100172.02
2023-02-15T21:33:51.850Z,100173.38
2023-02-15T21:36:25.356Z,100172.80
2023-02-15T21:38:53.947Z,100170.48
2023-02-15T21:41:43.106Z,100166.27
2023-02-15T21:44:42.603Z,100166.91
2023-02-15T21:47:55.247Z,100161.82
2023-02-15T21:50:43.709Z,100155.66
2023-02-15T21:53:42.673Z,100150.61
2023-02-15T21:56:14.800Z,100148.45
2023-02-15T21:58:43.012Z,100148.23
2023-02-15T22:01:23.632Z,100147.86
2023-02-15T22:03:55.060Z,100144.52
2023-02-15T22:06:23.557Z,100146.23
2023-02-15T22:08:51.585Z,100144.45
2023-02-15T22:11:24.813Z,100144.28
2023-02-15T22:13:53.227Z,100142.89
2023-02-15T22:16:23.060Z,100140.78
2023-02-15T22:18:51.003Z,100140.23
2023-02-15T22:21:20.843Z,100135.34
2023-02-15T22:23:48.618Z,100134.97
2023-02-15T22:26:24.835Z,100134.07
2023-02-15T22:28:53.472Z,100132.66
2023-02-15T22:31:23.309Z,100130.86
2023-02-15T22:33:51.607Z,100126.64
2023-02-15T22:36:29.673Z,100121.70
2023-02-15T22:38:58.228Z,100116.59
2023-02-15T22:41:31.408Z,100118.79
2023-02-15T22:44:00.277Z,100119.27
2023-02-15T22:46:28.060Z,100114.87
2023-02-15T22:48:55.819Z,100112.88
2023-02-15T22:51:25.109Z,100114.32
2023-02-15T22:53:54.035Z,100107.73
2023-02-15T22:56:34.820Z,100106.60
2023-02-15T22:59:06.052Z,100105.80
2023-02-15T23:01:36.957Z,100102.76
2023-02-15T23:04:05.680Z,100096.59
2023-02-15T23:06:34.653Z,100095.65
2023-02-15T23:09:02.562Z,100096.79
2023-02-15T23:11:30.411Z,100095.00
2023-02-15T23:13:58.170Z,100093.41
2023-02-15T23:16:26.005Z,100085.50
2023-02-15T23:18:54.685Z,100088.08
2023-02-15T23:21:24.084Z,100082.46
2023-02-15T23:23:55.400Z,100086.27
2023-02-15T23:26:29.840Z,100082.41
2023-02-15T23:29:00.313Z,100082.88
2023-02-15T23:31:32.139Z,100084.27
2023-02-15T23:34:02.924Z,100078.58
2023-02-15T23:36:40.682Z,100072.06
2023-02-15T23:39:37.952Z,100070.33
2023-02-15T23:42:15.439Z,100068.21
2023-02-15T23:44:44.988Z,100071.02
2023-02-15T23:47:53.120Z,100072.06
2023-02-15T23:50:21.002Z,100067.73
2023-02-15T23:52:50.870Z,100070.20
2023-02-15T23:55:19.272Z,100069.66
2023-02-15T23:57:47.856Z,100066.85
